sensor_id;sensor_type;location;lat;lon;timestamp;P1;durP1;ratioP1;P2;durP2;ratioP2
37445;SDS011;23307;51.136;14.942;2024-01-16T00:00:48;5.03;;;2.43;;
37445;SDS011;23307;51.136;14.942;2024-01-16T00:03:14;2.30;;;2.10;;
37445;SDS011;23307;51.136;14.942;2024-01-16T00:05:39;2.77;;;2.37;;
37445;SDS011;23307;51.136;14.942;2024-01-16T00:08:05;2.90;;;2.37;;
37445;SDS011;23307;51.136;14.942;2024-01-16T00:10:30;2.90;;;2.60;;
37445;SDS011;23307;51.136;14.942;2024-01-16T00:12:56;4.63;;;2.20;;
37445;SDS011;23307;51.136;14.942;2024-01-16T00:15:21;2.53;;;2.20;;
37445;SDS011;23307;51.136;14.942;2024-01-16T00:17:47;2.27;;;2.00;;
37445;SDS011;23307;51.136;14.942;2024-01-16T00:20:12;2.67;;;2.40;;
37445;SDS011;23307;51.136;14.942;2024-01-16T00:22:38;3.03;;;2.20;;
37445;SDS011;23307;51.136;14.942;2024-01-16T00:25:04;4.60;;;2.40;;
37445;SDS011;23307;51.136;14.942;2024-01-16T00:27:29;2.83;;;2.53;;
37445;SDS011;23307;51.136;14.942;2024-01-16T00:29:55;5.13;;;3.07;;
37445;SDS011;23307;51.136;14.942;2024-01-16T00:32:20;4.10;;;3.37;;
37445;SDS011;23307;51.136;14.942;2024-01-16T00:34:46;3.93;;;3.20;;
37445;SDS011;23307;51.136;14.942;2024-01-16T00:37:11;3.23;;;2.73;;
37445;SDS011;23307;51.136;14.942;2024-01-16T00:39:37;2.10;;;1.90;;
37445;SDS011;23307;51.136;14.942;2024-01-16T00:42:02;3.27;;;2.40;;
37445;SDS011;23307;51.136;14.942;2024-01-16T00:44:28;4.20;;;2.20;;
37445;SDS011;23307;51.136;14.942;2024-01-16T00:46:54;4.20;;;1.87;;
37445;SDS011;23307;51.136;14.942;2024-01-16T00:49:19;2.50;;;2.30;;
37445;SDS011;23307;51.136;14.942;2024-01-16T00:51:45;4.90;;;2.87;;
37445;SDS011;23307;51.136;14.942;2024-01-16T00:54:10;3.10;;;2.67;;
37445;SDS011;23307;51.136;14.942;2024-01-16T00:56:36;4.37;;;2.93;;
37445;SDS011;23307;51.136;14.942;2024-01-16T00:59:02;3.77;;;2.57;;
37445;SDS011;23307;51.136;14.942;2024-01-16T01:01:27;6.23;;;3.20;;
37445;SDS011;23307;51.136;14.942;2024-01-16T01:03:53;4.20;;;2.90;;
37445;SDS011;23307;51.136;14.942;2024-01-16T01:06:19;3.10;;;2.80;;
37445;SDS011;23307;51.136;14.942;2024-01-16T01:08:44;3.97;;;2.87;;
37445;SDS011;23307;51.136;14.942;2024-01-16T01:11:11;3.87;;;2.93;;
37445;SDS011;23307;51.136;14.942;2024-01-16T01:13:36;3.70;;;2.73;;
37445;SDS011;23307;51.136;14.942;2024-01-16T01:16:02;4.20;;;3.10;;
37445;SDS011;23307;51.136;14.942;2024-01-16T01:18:28;3.87;;;2.83;;
37445;SDS011;23307;51.136;14.942;2024-01-16T01:20:53;2.63;;;2.30;;
37445;SDS011;23307;51.136;14.942;2024-01-16T01:23:19;5.07;;;2.33;;
37445;SDS011;23307;51.136;14.942;2024-01-16T01:25:44;6.50;;;2.53;;
37445;SDS011;23307;51.136;14.942;2024-01-16T01:28:10;5.20;;;2.30;;
37445;SDS011;23307;51.136;14.942;2024-01-16T01:30:36;4.13;;;2.10;;
37445;SDS011;23307;51.136;14.942;2024-01-16T01:33:02;2.80;;;1.90;;
37445;SDS011;23307;51.136;14.942;2024-01-16T01:35:27;3.60;;;1.80;;
37445;SDS011;23307;51.136;14.942;2024-01-16T01:37:53;4.50;;;1.60;;
37445;SDS011;23307;51.136;14.942;2024-01-16T01:40:18;4.93;;;1.80;;
37445;SDS011;23307;51.136;14.942;2024-01-16T01:42:44;2.80;;;1.33;;
37445;SDS011;23307;51.136;14.942;2024-01-16T01:45:10;3.33;;;1.50;;
37445;SDS011;23307;51.136;14.942;2024-01-16T01:47:36;3.30;;;1.67;;
37445;SDS011;23307;51.136;14.942;2024-01-16T01:50:07;4.17;;;1.77;;
37445;SDS011;23307;51.136;14.942;2024-01-16T01:52:34;4.57;;;2.10;;
37445;SDS011;23307;51.136;14.942;2024-01-16T01:55:00;5.07;;;1.67;;
37445;SDS011;23307;51.136;14.942;2024-01-16T01:57:27;2.67;;;1.70;;
37445;SDS011;23307;51.136;14.942;2024-01-16T01:59:52;5.47;;;1.87;;
37445;SDS011;23307;51.136;14.942;2024-01-16T02:02:18;2.67;;;1.63;;
37445;SDS011;23307;51.136;14.942;2024-01-16T02:04:45;6.30;;;2.60;;
37445;SDS011;23307;51.136;14.942;2024-01-16T02:07:11;3.80;;;2.30;;
37445;SDS011;23307;51.136;14.942;2024-01-16T02:09:37;5.93;;;2.00;;
37445;SDS011;23307;51.136;14.942;2024-01-16T02:12:04;3.03;;;2.53;;
37445;SDS011;23307;51.136;14.942;2024-01-16T02:14:30;4.73;;;2.23;;
37445;SDS011;23307;51.136;14.942;2024-01-16T02:16:56;5.20;;;1.97;;
37445;SDS011;23307;51.136;14.942;2024-01-16T02:19:21;2.93;;;1.70;;
37445;SDS011;23307;51.136;14.942;2024-01-16T02:21:47;2.50;;;1.67;;
37445;SDS011;23307;51.136;14.942;2024-01-16T02:24:14;3.90;;;2.27;;
37445;SDS011;23307;51.136;14.942;2024-01-16T02:26:41;4.43;;;2.17;;
37445;SDS011;23307;51.136;14.942;2024-01-16T02:29:07;4.37;;;2.47;;
37445;SDS011;23307;51.136;14.942;2024-01-16T02:31:33;5.33;;;2.50;;
37445;SDS011;23307;51.136;14.942;2024-01-16T02:33:59;4.43;;;2.20;;
37445;SDS011;23307;51.136;14.942;2024-01-16T02:36:25;2.73;;;2.17;;
37445;SDS011;23307;51.136;14.942;2024-01-16T02:38:51;4.03;;;2.43;;
37445;SDS011;23307;51.136;14.942;2024-01-16T02:41:17;10.77;;;3.57;;
37445;SDS011;23307;51.136;14.942;2024-01-16T02:43:43;6.80;;;2.40;;
37445;SDS011;23307;51.136;14.942;2024-01-16T02:46:09;7.07;;;2.30;;
37445;SDS011;23307;51.136;14.942;2024-01-16T02:48:35;4.87;;;2.10;;
37445;SDS011;23307;51.136;14.942;2024-01-16T02:51:01;6.37;;;2.23;;
37445;SDS011;23307;51.136;14.942;2024-01-16T02:53:28;5.00;;;2.50;;
37445;SDS011;23307;51.136;14.942;2024-01-16T02:55:54;5.47;;;2.80;;
37445;SDS011;23307;51.136;14.942;2024-01-16T02:58:20;2.63;;;2.30;;
37445;SDS011;23307;51.136;14.942;2024-01-16T03:00:46;4.83;;;2.70;;
37445;SDS011;23307;51.136;14.942;2024-01-16T03:03:12;4.10;;;2.60;;
37445;SDS011;23307;51.136;14.942;2024-01-16T03:05:38;3.30;;;2.20;;
37445;SDS011;23307;51.136;14.942;2024-01-16T03:08:03;2.37;;;2.00;;
37445;SDS011;23307;51.136;14.942;2024-01-16T03:10:30;4.80;;;2.67;;
37445;SDS011;23307;51.136;14.942;2024-01-16T03:12:55;3.97;;;2.80;;
37445;SDS011;23307;51.136;14.942;2024-01-16T03:15:22;5.60;;;2.37;;
37445;SDS011;23307;51.136;14.942;2024-01-16T03:17:47;5.37;;;2.50;;
37445;SDS011;23307;51.136;14.942;2024-01-16T03:20:14;4.30;;;2.03;;
37445;SDS011;23307;51.136;14.942;2024-01-16T03:22:40;6.03;;;2.40;;
37445;SDS011;23307;51.136;14.942;2024-01-16T03:25:05;3.90;;;2.27;;
37445;SDS011;23307;51.136;14.942;2024-01-16T03:27:32;3.10;;;2.47;;
37445;SDS011;23307;51.136;14.942;2024-01-16T03:29:57;5.43;;;2.10;;
37445;SDS011;23307;51.136;14.942;2024-01-16T03:32:23;2.97;;;2.10;;
37445;SDS011;23307;51.136;14.942;2024-01-16T03:34:48;2.80;;;2.20;;
37445;SDS011;23307;51.136;14.942;2024-01-16T03:37:14;4.13;;;2.27;;
37445;SDS011;23307;51.136;14.942;2024-01-16T03:39:39;3.43;;;2.30;;
37445;SDS011;23307;51.136;14.942;2024-01-16T03:42:05;2.83;;;2.13;;
37445;SDS011;23307;51.136;14.942;2024-01-16T03:44:30;2.10;;;1.90;;
37445;SDS011;23307;51.136;14.942;2024-01-16T03:46:56;4.07;;;2.67;;
37445;SDS011;23307;51.136;14.942;2024-01-16T03:49:21;2.23;;;2.03;;
37445;SDS011;23307;51.136;14.942;2024-01-16T03:51:47;3.97;;;2.33;;
37445;SDS011;23307;51.136;14.942;2024-01-16T03:54:12;3.00;;;2.30;;
37445;SDS011;23307;51.136;14.942;2024-01-16T03:56:38;3.40;;;2.23;;
37445;SDS011;23307;51.136;14.942;2024-01-16T03:59:04;4.40;;;2.30;;
37445;SDS011;23307;51.136;14.942;2024-01-16T04:01:33;2.67;;;2.37;;
37445;SDS011;23307;51.136;14.942;2024-01-16T04:04:01;4.23;;;2.43;;
37445;SDS011;23307;51.136;14.942;2024-01-16T04:06:27;3.10;;;1.80;;
37445;SDS011;23307;51.136;14.942;2024-01-16T04:08:54;4.17;;;2.17;;
37445;SDS011;23307;51.136;14.942;2024-01-16T04:11:20;4.97;;;2.33;;
37445;SDS011;23307;51.136;14.942;2024-01-16T04:13:46;3.43;;;2.50;;
37445;SDS011;23307;51.136;14.942;2024-01-16T04:16:11;3.43;;;2.23;;
37445;SDS011;23307;51.136;14.942;2024-01-16T04:18:38;4.43;;;2.50;;
37445;SDS011;23307;51.136;14.942;2024-01-16T04:21:05;2.60;;;2.00;;
37445;SDS011;23307;51.136;14.942;2024-01-16T04:23:31;6.00;;;2.20;;
37445;SDS011;23307;51.136;14.942;2024-01-16T04:25:57;4.93;;;2.33;;
37445;SDS011;23307;51.136;14.942;2024-01-16T04:28:23;3.53;;;2.40;;
37445;SDS011;23307;51.136;14.942;2024-01-16T04:30:48;3.83;;;2.47;;
37445;SDS011;23307;51.136;14.942;2024-01-16T04:33:14;3.97;;;2.50;;
37445;SDS011;23307;51.136;14.942;2024-01-16T04:35:39;7.30;;;2.40;;
37445;SDS011;23307;51.136;14.942;2024-01-16T04:38:05;3.57;;;2.20;;
37445;SDS011;23307;51.136;14.942;2024-01-16T04:40:32;3.80;;;1.97;;
37445;SDS011;23307;51.136;14.942;2024-01-16T04:42:58;3.40;;;2.00;;
37445;SDS011;23307;51.136;14.942;2024-01-16T04:45:24;3.30;;;2.23;;
37445;SDS011;23307;51.136;14.942;2024-01-16T04:47:49;4.17;;;2.30;;
37445;SDS011;23307;51.136;14.942;2024-01-16T04:50:15;4.27;;;1.73;;
37445;SDS011;23307;51.136;14.942;2024-01-16T04:52:40;5.33;;;2.23;;
37445;SDS011;23307;51.136;14.942;2024-01-16T04:55:06;3.37;;;2.17;;
37445;SDS011;23307;51.136;14.942;2024-01-16T04:57:32;2.93;;;2.10;;
37445;SDS011;23307;51.136;14.942;2024-01-16T04:59:58;5.03;;;2.20;;
37445;SDS011;23307;51.136;14.942;2024-01-16T05:02:23;4.53;;;2.07;;
37445;SDS011;23307;51.136;14.942;2024-01-16T05:04:49;2.50;;;1.77;;
37445;SDS011;23307;51.136;14.942;2024-01-16T05:07:17;2.40;;;1.87;;
37445;SDS011;23307;51.136;14.942;2024-01-16T05:09:44;4.67;;;2.00;;
37445;SDS011;23307;51.136;14.942;2024-01-16T05:12:10;3.57;;;1.87;;
37445;SDS011;23307;51.136;14.942;2024-01-16T05:14:35;2.37;;;1.40;;
37445;SDS011;23307;51.136;14.942;2024-01-16T05:17:01;2.50;;;2.07;;
37445;SDS011;23307;51.136;14.942;2024-01-16T05:19:27;3.60;;;2.00;;
37445;SDS011;23307;51.136;14.942;2024-01-16T05:21:52;3.00;;;1.73;;
37445;SDS011;23307;51.136;14.942;2024-01-16T05:24:18;4.77;;;1.80;;
37445;SDS011;23307;51.136;14.942;2024-01-16T05:26:43;3.10;;;1.80;;
37445;SDS011;23307;51.136;14.942;2024-01-16T05:29:09;1.60;;;1.40;;
37445;SDS011;23307;51.136;14.942;2024-01-16T05:31:41;2.30;;;1.53;;
37445;SDS011;23307;51.136;14.942;2024-01-16T05:34:07;2.63;;;2.10;;
37445;SDS011;23307;51.136;14.942;2024-01-16T05:36:33;1.83;;;1.47;;
37445;SDS011;23307;51.136;14.942;2024-01-16T05:38:58;4.53;;;1.60;;
37445;SDS011;23307;51.136;14.942;2024-01-16T05:41:24;4.77;;;1.80;;
37445;SDS011;23307;51.136;14.942;2024-01-16T05:43:49;2.93;;;1.20;;
37445;SDS011;23307;51.136;14.942;2024-01-16T05:46:14;4.10;;;1.97;;
37445;SDS011;23307;51.136;14.942;2024-01-16T05:48:40;7.17;;;1.97;;
37445;SDS011;23307;51.136;14.942;2024-01-16T05:51:05;2.73;;;1.60;;
37445;SDS011;23307;51.136;14.942;2024-01-16T05:53:31;3.13;;;2.00;;
37445;SDS011;23307;51.136;14.942;2024-01-16T05:55:56;4.80;;;2.00;;
37445;SDS011;23307;51.136;14.942;2024-01-16T05:58:22;2.80;;;1.73;;
37445;SDS011;23307;51.136;14.942;2024-01-16T06:00:47;4.23;;;2.03;;
37445;SDS011;23307;51.136;14.942;2024-01-16T06:03:13;7.93;;;4.70;;
37445;SDS011;23307;51.136;14.942;2024-01-16T06:05:38;3.33;;;2.80;;
37445;SDS011;23307;51.136;14.942;2024-01-16T06:08:04;2.33;;;2.13;;
37445;SDS011;23307;51.136;14.942;2024-01-16T06:10:30;2.83;;;1.60;;
37445;SDS011;23307;51.136;14.942;2024-01-16T06:12:56;2.07;;;1.10;;
37445;SDS011;23307;51.136;14.942;2024-01-16T06:15:21;1.00;;;1.00;;
37445;SDS011;23307;51.136;14.942;2024-01-16T06:17:48;0.63;;;0.63;;
37445;SDS011;23307;51.136;14.942;2024-01-16T06:20:13;1.37;;;1.27;;
37445;SDS011;23307;51.136;14.942;2024-01-16T06:22:39;2.00;;;0.90;;
37445;SDS011;23307;51.136;14.942;2024-01-16T06:25:04;1.73;;;0.93;;
37445;SDS011;23307;51.136;14.942;2024-01-16T06:27:31;0.80;;;0.70;;
37445;SDS011;23307;51.136;14.942;2024-01-16T06:29:56;2.20;;;0.93;;
37445;SDS011;23307;51.136;14.942;2024-01-16T06:32:22;2.50;;;1.20;;
37445;SDS011;23307;51.136;14.942;2024-01-16T06:34:47;1.33;;;1.00;;
37445;SDS011;23307;51.136;14.942;2024-01-16T06:37:13;1.00;;;0.90;;
37445;SDS011;23307;51.136;14.942;2024-01-16T06:39:38;1.27;;;1.03;;
37445;SDS011;23307;51.136;14.942;2024-01-16T06:42:04;1.40;;;1.27;;
37445;SDS011;23307;51.136;14.942;2024-01-16T06:44:30;1.83;;;1.40;;
37445;SDS011;23307;51.136;14.942;2024-01-16T06:46:56;1.60;;;1.30;;
37445;SDS011;23307;51.136;14.942;2024-01-16T06:49:21;3.57;;;1.50;;
37445;SDS011;23307;51.136;14.942;2024-01-16T06:51:47;3.40;;;1.47;;
37445;SDS011;23307;51.136;14.942;2024-01-16T06:54:12;3.33;;;1.63;;
37445;SDS011;23307;51.136;14.942;2024-01-16T06:56:38;2.10;;;1.57;;
37445;SDS011;23307;51.136;14.942;2024-01-16T06:59:03;1.80;;;1.70;;
37445;SDS011;23307;51.136;14.942;2024-01-16T07:01:29;3.63;;;1.60;;
37445;SDS011;23307;51.136;14.942;2024-01-16T07:03:55;1.97;;;1.73;;
37445;SDS011;23307;51.136;14.942;2024-01-16T07:06:21;2.20;;;1.90;;
37445;SDS011;23307;51.136;14.942;2024-01-16T07:08:46;2.10;;;1.70;;
37445;SDS011;23307;51.136;14.942;2024-01-16T07:11:12;1.67;;;1.57;;
37445;SDS011;23307;51.136;14.942;2024-01-16T07:13:39;2.07;;;1.87;;
37445;SDS011;23307;51.136;14.942;2024-01-16T07:16:05;3.53;;;1.80;;
37445;SDS011;23307;51.136;14.942;2024-01-16T07:18:31;2.20;;;1.93;;
37445;SDS011;23307;51.136;14.942;2024-01-16T07:20:58;2.23;;;1.80;;
37445;SDS011;23307;51.136;14.942;2024-01-16T07:23:23;1.87;;;1.50;;
37445;SDS011;23307;51.136;14.942;2024-01-16T07:25:49;1.90;;;1.70;;
37445;SDS011;23307;51.136;14.942;2024-01-16T07:28:14;2.10;;;1.90;;
37445;SDS011;23307;51.136;14.942;2024-01-16T07:30:40;4.60;;;2.43;;
37445;SDS011;23307;51.136;14.942;2024-01-16T07:33:05;2.90;;;2.00;;
37445;SDS011;23307;51.136;14.942;2024-01-16T07:35:31;2.80;;;2.17;;
37445;SDS011;23307;51.136;14.942;2024-01-16T07:37:56;3.57;;;1.93;;
37445;SDS011;23307;51.136;14.942;2024-01-16T07:40:22;2.50;;;2.30;;
37445;SDS011;23307;51.136;14.942;2024-01-16T07:42:48;3.90;;;3.27;;
37445;SDS011;23307;51.136;14.942;2024-01-16T07:45:14;5.53;;;2.73;;
37445;SDS011;23307;51.136;14.942;2024-01-16T07:47:39;4.77;;;2.63;;
37445;SDS011;23307;51.136;14.942;2024-01-16T07:50:05;5.37;;;3.47;;
37445;SDS011;23307;51.136;14.942;2024-01-16T07:52:31;5.50;;;3.50;;
37445;SDS011;23307;51.136;14.942;2024-01-16T07:54:57;3.97;;;2.40;;
37445;SDS011;23307;51.136;14.942;2024-01-16T07:57:22;4.63;;;3.07;;
37445;SDS011;23307;51.136;14.942;2024-01-16T07:59:48;4.43;;;2.90;;
37445;SDS011;23307;51.136;14.942;2024-01-16T08:02:13;6.03;;;3.50;;
37445;SDS011;23307;51.136;14.942;2024-01-16T08:04:39;7.37;;;3.37;;
37445;SDS011;23307;51.136;14.942;2024-01-16T08:07:04;3.90;;;3.10;;
37445;SDS011;23307;51.136;14.942;2024-01-16T08:09:30;4.23;;;2.17;;
37445;SDS011;23307;51.136;14.942;2024-01-16T08:11:55;3.77;;;2.50;;
37445;SDS011;23307;51.136;14.942;2024-01-16T08:14:20;7.80;;;3.13;;
37445;SDS011;23307;51.136;14.942;2024-01-16T08:16:46;4.23;;;2.60;;
37445;SDS011;23307;51.136;14.942;2024-01-16T08:19:12;5.87;;;2.90;;
37445;SDS011;23307;51.136;14.942;2024-01-16T08:21:38;5.17;;;3.00;;
37445;SDS011;23307;51.136;14.942;2024-01-16T08:24:04;3.77;;;2.57;;
37445;SDS011;23307;51.136;14.942;2024-01-16T08:26:29;5.57;;;2.93;;
37445;SDS011;23307;51.136;14.942;2024-01-16T08:28:55;8.13;;;2.83;;
37445;SDS011;23307;51.136;14.942;2024-01-16T08:31:20;3.37;;;2.90;;
37445;SDS011;23307;51.136;14.942;2024-01-16T08:33:46;3.57;;;2.60;;
37445;SDS011;23307;51.136;14.942;2024-01-16T08:36:12;4.57;;;2.37;;
37445;SDS011;23307;51.136;14.942;2024-01-16T08:38:39;4.57;;;3.00;;
37445;SDS011;23307;51.136;14.942;2024-01-16T08:41:04;4.37;;;1.90;;
37445;SDS011;23307;51.136;14.942;2024-01-16T08:43:31;3.80;;;2.10;;
37445;SDS011;23307;51.136;14.942;2024-01-16T08:46:00;3.67;;;2.50;;
37445;SDS011;23307;51.136;14.942;2024-01-16T08:48:25;4.90;;;2.80;;
37445;SDS011;23307;51.136;14.942;2024-01-16T08:50:51;2.30;;;2.00;;
37445;SDS011;23307;51.136;14.942;2024-01-16T08:53:19;3.20;;;2.23;;
37445;SDS011;23307;51.136;14.942;2024-01-16T08:55:44;1.20;;;1.07;;
37445;SDS011;23307;51.136;14.942;2024-01-16T08:58:10;1.30;;;1.20;;
37445;SDS011;23307;51.136;14.942;2024-01-16T09:00:35;1.40;;;1.30;;
37445;SDS011;23307;51.136;14.942;2024-01-16T09:03:02;3.87;;;1.50;;
37445;SDS011;23307;51.136;14.942;2024-01-16T09:05:28;1.80;;;1.30;;
37445;SDS011;23307;51.136;14.942;2024-01-16T09:07:54;2.00;;;1.47;;
37445;SDS011;23307;51.136;14.942;2024-01-16T09:10:19;2.10;;;1.50;;
37445;SDS011;23307;51.136;14.942;2024-01-16T09:12:45;1.77;;;1.67;;
37445;SDS011;23307;51.136;14.942;2024-01-16T09:15:10;1.37;;;1.27;;
37445;SDS011;23307;51.136;14.942;2024-01-16T09:17:36;7.33;;;2.37;;
37445;SDS011;23307;51.136;14.942;2024-01-16T09:20:01;1.77;;;1.67;;
37445;SDS011;23307;51.136;14.942;2024-01-16T09:22:27;3.23;;;1.17;;
37445;SDS011;23307;51.136;14.942;2024-01-16T09:24:52;2.33;;;1.53;;
37445;SDS011;23307;51.136;14.942;2024-01-16T09:27:18;1.60;;;1.43;;
37445;SDS011;23307;51.136;14.942;2024-01-16T09:29:44;1.67;;;1.40;;
37445;SDS011;23307;51.136;14.942;2024-01-16T09:32:10;1.80;;;1.70;;
37445;SDS011;23307;51.136;14.942;2024-01-16T09:34:35;1.70;;;1.50;;
37445;SDS011;23307;51.136;14.942;2024-01-16T09:37:01;1.70;;;1.60;;
37445;SDS011;23307;51.136;14.942;2024-01-16T09:39:27;3.13;;;1.40;;
37445;SDS011;23307;51.136;14.942;2024-01-16T09:41:55;1.70;;;1.60;;
37445;SDS011;23307;51.136;14.942;2024-01-16T09:44:24;2.00;;;1.33;;
37445;SDS011;23307;51.136;14.942;2024-01-16T09:46:50;1.67;;;1.30;;
37445;SDS011;23307;51.136;14.942;2024-01-16T09:49:17;1.93;;;1.30;;
37445;SDS011;23307;51.136;14.942;2024-01-16T09:51:43;2.40;;;1.30;;
37445;SDS011;23307;51.136;14.942;2024-01-16T09:54:09;2.23;;;1.60;;
37445;SDS011;23307;51.136;14.942;2024-01-16T09:56:35;2.77;;;2.20;;
37445;SDS011;23307;51.136;14.942;2024-01-16T09:59:06;3.23;;;1.73;;
37445;SDS011;23307;51.136;14.942;2024-01-16T10:01:34;1.43;;;1.33;;
37445;SDS011;23307;51.136;14.942;2024-01-16T10:04:00;3.10;;;1.93;;
37445;SDS011;23307;51.136;14.942;2024-01-16T10:06:28;2.77;;;1.70;;
37445;SDS011;23307;51.136;14.942;2024-01-16T10:08:56;2.23;;;1.80;;
37445;SDS011;23307;51.136;14.942;2024-01-16T10:11:22;2.03;;;1.80;;
37445;SDS011;23307;51.136;14.942;2024-01-16T10:13:47;3.37;;;2.13;;
37445;SDS011;23307;51.136;14.942;2024-01-16T10:16:13;3.80;;;1.90;;
37445;SDS011;23307;51.136;14.942;2024-01-16T10:18:38;3.47;;;2.03;;
37445;SDS011;23307;51.136;14.942;2024-01-16T10:21:04;1.80;;;1.70;;
37445;SDS011;23307;51.136;14.942;2024-01-16T10:23:30;4.13;;;2.03;;
37445;SDS011;23307;51.136;14.942;2024-01-16T10:28:36;2.73;;;2.13;;
37445;SDS011;23307;51.136;14.942;2024-01-16T10:31:03;2.87;;;2.20;;
37445;SDS011;23307;51.136;14.942;2024-01-16T10:33:30;3.00;;;2.10;;
37445;SDS011;23307;51.136;14.942;2024-01-16T10:36:29;4.40;;;2.93;;
37445;SDS011;23307;51.136;14.942;2024-01-16T10:38:48;4.33;;;2.80;;
37445;SDS011;23307;51.136;14.942;2024-01-16T10:41:19;4.30;;;2.67;;
37445;SDS011;23307;51.136;14.942;2024-01-16T10:43:50;7.03;;;2.70;;
37445;SDS011;23307;51.136;14.942;2024-01-16T10:46:29;3.83;;;3.07;;
37445;SDS011;23307;51.136;14.942;2024-01-16T10:49:01;5.23;;;2.83;;
37445;SDS011;23307;51.136;14.942;2024-01-16T10:51:27;5.57;;;4.20;;
37445;SDS011;23307;51.136;14.942;2024-01-16T10:53:57;8.27;;;3.33;;
37445;SDS011;23307;51.136;14.942;2024-01-16T10:56:24;4.23;;;2.90;;
37445;SDS011;23307;51.136;14.942;2024-01-16T10:58:57;5.30;;;2.37;;
37445;SDS011;23307;51.136;14.942;2024-01-16T11:01:39;4.37;;;3.13;;
37445;SDS011;23307;51.136;14.942;2024-01-16T11:04:09;4.80;;;2.40;;
37445;SDS011;23307;51.136;14.942;2024-01-16T11:06:37;5.10;;;2.37;;
37445;SDS011;23307;51.136;14.942;2024-01-16T11:09:03;4.40;;;2.27;;
37445;SDS011;23307;51.136;14.942;2024-01-16T11:11:29;7.37;;;2.20;;
37445;SDS011;23307;51.136;14.942;2024-01-16T11:13:56;6.03;;;2.47;;
37445;SDS011;23307;51.136;14.942;2024-01-16T11:16:23;5.00;;;2.10;;
37445;SDS011;23307;51.136;14.942;2024-01-16T11:18:50;3.83;;;1.97;;
37445;SDS011;23307;51.136;14.942;2024-01-16T11:21:15;3.97;;;2.40;;
37445;SDS011;23307;51.136;14.942;2024-01-16T11:23:41;5.53;;;3.00;;
37445;SDS011;23307;51.136;14.942;2024-01-16T11:26:24;6.03;;;2.70;;
37445;SDS011;23307;51.136;14.942;2024-01-16T11:28:55;9.67;;;3.00;;
37445;SDS011;23307;51.136;14.942;2024-01-16T11:31:30;6.47;;;2.40;;
37445;SDS011;23307;51.136;14.942;2024-01-16T11:34:00;3.53;;;1.90;;
37445;SDS011;23307;51.136;14.942;2024-01-16T11:39:22;5.23;;;2.50;;
37445;SDS011;23307;51.136;14.942;2024-01-16T11:41:52;6.10;;;2.40;;
37445;SDS011;23307;51.136;14.942;2024-01-16T11:44:52;4.20;;;2.20;;
37445;SDS011;23307;51.136;14.942;2024-01-16T11:47:16;5.83;;;2.47;;
37445;SDS011;23307;51.136;14.942;2024-01-16T11:49:43;6.63;;;2.93;;
37445;SDS011;23307;51.136;14.942;2024-01-16T11:52:08;5.77;;;2.60;;
37445;SDS011;23307;51.136;14.942;2024-01-16T11:54:36;6.00;;;2.27;;
37445;SDS011;23307;51.136;14.942;2024-01-16T12:00:18;3.47;;;2.10;;
37445;SDS011;23307;51.136;14.942;2024-01-16T12:05:10;6.90;;;2.47;;
37445;SDS011;23307;51.136;14.942;2024-01-16T12:07:42;4.17;;;2.17;;
37445;SDS011;23307;51.136;14.942;2024-01-16T12:10:10;6.27;;;2.50;;
37445;SDS011;23307;51.136;14.942;2024-01-16T12:12:36;5.57;;;2.33;;
37445;SDS011;23307;51.136;14.942;2024-01-16T12:15:01;5.17;;;2.20;;
37445;SDS011;23307;51.136;14.942;2024-01-16T12:17:27;5.07;;;2.40;;
37445;SDS011;23307;51.136;14.942;2024-01-16T12:19:52;7.23;;;2.37;;
37445;SDS011;23307;51.136;14.942;2024-01-16T12:22:18;3.13;;;2.10;;
37445;SDS011;23307;51.136;14.942;2024-01-16T12:24:46;6.70;;;3.03;;
37445;SDS011;23307;51.136;14.942;2024-01-16T12:27:12;5.20;;;2.20;;
37445;SDS011;23307;51.136;14.942;2024-01-16T12:29:38;7.37;;;2.40;;
37445;SDS011;23307;51.136;14.942;2024-01-16T12:32:09;5.10;;;2.50;;
37445;SDS011;23307;51.136;14.942;2024-01-16T12:34:42;4.40;;;2.13;;
37445;SDS011;23307;51.136;14.942;2024-01-16T12:37:10;5.60;;;2.17;;
37445;SDS011;23307;51.136;14.942;2024-01-16T12:39:36;3.53;;;2.70;;
37445;SDS011;23307;51.136;14.942;2024-01-16T12:42:02;5.63;;;2.17;;
37445;SDS011;23307;51.136;14.942;2024-01-16T12:44:28;6.83;;;2.40;;
37445;SDS011;23307;51.136;14.942;2024-01-16T12:46:54;5.90;;;2.63;;
37445;SDS011;23307;51.136;14.942;2024-01-16T12:49:21;3.13;;;2.20;;
37445;SDS011;23307;51.136;14.942;2024-01-16T12:51:47;5.60;;;3.13;;
37445;SDS011;23307;51.136;14.942;2024-01-16T12:54:13;3.73;;;2.43;;
37445;SDS011;23307;51.136;14.942;2024-01-16T12:56:40;5.37;;;2.90;;
37445;SDS011;23307;51.136;14.942;2024-01-16T12:59:09;6.80;;;2.27;;
37445;SDS011;23307;51.136;14.942;2024-01-16T13:01:36;8.00;;;3.27;;
37445;SDS011;23307;51.136;14.942;2024-01-16T13:04:09;5.80;;;3.03;;
37445;SDS011;23307;51.136;14.942;2024-01-16T13:06:35;9.30;;;5.33;;
37445;SDS011;23307;51.136;14.942;2024-01-16T13:09:07;8.83;;;5.67;;
37445;SDS011;23307;51.136;14.942;2024-01-16T13:11:51;7.57;;;5.13;;
37445;SDS011;23307;51.136;14.942;2024-01-16T13:14:19;7.27;;;3.87;;
37445;SDS011;23307;51.136;14.942;2024-01-16T13:16:48;7.93;;;4.00;;
37445;SDS011;23307;51.136;14.942;2024-01-16T13:19:18;6.77;;;4.63;;
37445;SDS011;23307;51.136;14.942;2024-01-16T13:21:44;6.43;;;3.57;;
37445;SDS011;23307;51.136;14.942;2024-01-16T13:24:10;4.87;;;2.50;;
37445;SDS011;23307;51.136;14.942;2024-01-16T13:26:35;8.33;;;3.93;;
37445;SDS011;23307;51.136;14.942;2024-01-16T13:29:02;5.63;;;3.40;;
37445;SDS011;23307;51.136;14.942;2024-01-16T13:31:28;8.77;;;4.63;;
37445;SDS011;23307;51.136;14.942;2024-01-16T13:33:54;7.77;;;4.60;;
37445;SDS011;23307;51.136;14.942;2024-01-16T13:36:21;10.23;;;4.90;;
37445;SDS011;23307;51.136;14.942;2024-01-16T13:38:47;8.77;;;4.70;;
37445;SDS011;23307;51.136;14.942;2024-01-16T13:41:13;8.47;;;3.43;;
37445;SDS011;23307;51.136;14.942;2024-01-16T13:43:39;4.33;;;3.10;;
37445;SDS011;23307;51.136;14.942;2024-01-16T13:46:05;4.30;;;2.80;;
37445;SDS011;23307;51.136;14.942;2024-01-16T13:48:30;4.93;;;2.70;;
37445;SDS011;23307;51.136;14.942;2024-01-16T13:50:56;9.40;;;4.40;;
37445;SDS011;23307;51.136;14.942;2024-01-16T13:53:21;3.83;;;2.60;;
37445;SDS011;23307;51.136;14.942;2024-01-16T13:55:47;4.33;;;2.33;;
37445;SDS011;23307;51.136;14.942;2024-01-16T13:58:13;4.63;;;2.30;;
37445;SDS011;23307;51.136;14.942;2024-01-16T14:00:38;3.73;;;2.00;;
37445;SDS011;23307;51.136;14.942;2024-01-16T14:03:04;4.50;;;2.23;;
37445;SDS011;23307;51.136;14.942;2024-01-16T14:05:31;3.97;;;2.40;;
37445;SDS011;23307;51.136;14.942;2024-01-16T14:07:57;4.13;;;2.00;;
37445;SDS011;23307;51.136;14.942;2024-01-16T14:10:22;4.67;;;2.47;;
37445;SDS011;23307;51.136;14.942;2024-01-16T14:12:50;3.17;;;2.10;;
37445;SDS011;23307;51.136;14.942;2024-01-16T14:15:17;4.73;;;2.10;;
37445;SDS011;23307;51.136;14.942;2024-01-16T14:17:47;7.97;;;2.67;;
37445;SDS011;23307;51.136;14.942;2024-01-16T14:20:14;5.73;;;2.40;;
37445;SDS011;23307;51.136;14.942;2024-01-16T14:22:40;5.03;;;2.73;;
37445;SDS011;23307;51.136;14.942;2024-01-16T14:25:07;4.63;;;2.10;;
37445;SDS011;23307;51.136;14.942;2024-01-16T14:27:43;5.10;;;1.90;;
37445;SDS011;23307;51.136;14.942;2024-01-16T14:30:11;6.53;;;2.47;;
37445;SDS011;23307;51.136;14.942;2024-01-16T14:32:40;6.93;;;4.23;;
37445;SDS011;23307;51.136;14.942;2024-01-16T14:35:07;6.67;;;3.93;;
37445;SDS011;23307;51.136;14.942;2024-01-16T14:37:34;4.90;;;2.90;;
37445;SDS011;23307;51.136;14.942;2024-01-16T14:40:01;4.27;;;2.43;;